sensor_id;sensor_type;location;lat;lon;timestamp;P1;durP1;ratioP1;P2;durP2;ratioP2
48853;SDS011;34673;52.808;17.856;2023-03-01T00:01:16;58.50;;;23.20;;
48853;SDS011;34673;52.808;17.856;2023-03-01T00:03:45;57.60;;;23.85;;
48853;SDS011;34673;52.808;17.856;2023-03-01T00:06:13;55.40;;;23.08;;
48853;SDS011;34673;52.808;17.856;2023-03-01T00:08:41;61.00;;;25.00;;
48853;SDS011;34673;52.808;17.856;2023-03-01T00:11:19;58.15;;;24.48;;
48853;SDS011;34673;52.808;17.856;2023-03-01T00:13:51;56.33;;;23.60;;
48853;SDS011;34673;52.808;17.856;2023-03-01T00:16:22;58.78;;;23.48;;
48853;SDS011;34673;52.808;17.856;2023-03-01T00:18:53;57.22;;;24.85;;
48853;SDS011;34673;52.808;17.856;2023-03-01T00:21:21;58.10;;;24.15;;
48853;SDS011;34673;52.808;17.856;2023-03-01T00:23:51;59.22;;;23.83;;
48853;SDS011;34673;52.808;17.856;2023-03-01T00:26:19;54.63;;;24.50;;
48853;SDS011;34673;52.808;17.856;2023-03-01T00:28:47;60.33;;;24.77;;
48853;SDS011;34673;52.808;17.856;2023-03-01T00:31:16;56.38;;;24.52;;
48853;SDS011;34673;52.808;17.856;2023-03-01T00:33:45;55.70;;;23.65;;
48853;SDS011;34673;52.808;17.856;2023-03-01T00:36:14;54.17;;;23.15;;
48853;SDS011;34673;52.808;17.856;2023-03-01T00:38:42;58.70;;;24.40;;
48853;SDS011;34673;52.808;17.856;2023-03-01T00:41:16;59.47;;;24.75;;
48853;SDS011;34673;52.808;17.856;2023-03-01T00:43:44;64.05;;;25.83;;
48853;SDS011;34673;52.808;17.856;2023-03-01T00:46:15;58.05;;;25.10;;
48853;SDS011;34673;52.808;17.856;2023-03-01T00:48:48;56.35;;;23.98;;
48853;SDS011;34673;52.808;17.856;2023-03-01T00:53:46;55.65;;;24.90;;
48853;SDS011;34673;52.808;17.856;2023-03-01T00:56:16;61.67;;;26.17;;
48853;SDS011;34673;52.808;17.856;2023-03-01T00:58:43;57.65;;;25.73;;
48853;SDS011;34673;52.808;17.856;2023-03-01T01:01:12;57.60;;;24.70;;
48853;SDS011;34673;52.808;17.856;2023-03-01T01:04:00;53.40;;;24.65;;
48853;SDS011;34673;52.808;17.856;2023-03-01T01:06:34;58.85;;;23.85;;
48853;SDS011;34673;52.808;17.856;2023-03-01T01:09:04;56.75;;;24.55;;
48853;SDS011;34673;52.808;17.856;2023-03-01T01:11:35;54.47;;;23.55;;
48853;SDS011;34673;52.808;17.856;2023-03-01T01:14:05;56.85;;;23.38;;
48853;SDS011;34673;52.808;17.856;2023-03-01T01:16:32;57.40;;;23.83;;
48853;SDS011;34673;52.808;17.856;2023-03-01T01:19:00;57.38;;;24.35;;
48853;SDS011;34673;52.808;17.856;2023-03-01T01:21:28;53.60;;;23.88;;
48853;SDS011;34673;52.808;17.856;2023-03-01T01:23:56;55.58;;;25.05;;
48853;SDS011;34673;52.808;17.856;2023-03-01T01:26:24;64.45;;;24.60;;
48853;SDS011;34673;52.808;17.856;2023-03-01T01:28:54;60.65;;;25.05;;
48853;SDS011;34673;52.808;17.856;2023-03-01T01:31:23;57.60;;;24.25;;
48853;SDS011;34673;52.808;17.856;2023-03-01T01:33:51;56.80;;;23.83;;
48853;SDS011;34673;52.808;17.856;2023-03-01T01:36:20;61.58;;;24.02;;
48853;SDS011;34673;52.808;17.856;2023-03-01T01:38:47;54.08;;;22.90;;
48853;SDS011;34673;52.808;17.856;2023-03-01T01:41:15;55.03;;;23.90;;
48853;SDS011;34673;52.808;17.856;2023-03-01T01:43:43;56.45;;;23.73;;
48853;SDS011;34673;52.808;17.856;2023-03-01T01:46:24;51.75;;;22.33;;
48853;SDS011;34673;52.808;17.856;2023-03-01T01:49:00;55.42;;;22.67;;
48853;SDS011;34673;52.808;17.856;2023-03-01T01:51:31;52.08;;;21.45;;
48853;SDS011;34673;52.808;17.856;2023-03-01T01:54:11;50.13;;;22.52;;
48853;SDS011;34673;52.808;17.856;2023-03-01T01:57:03;55.75;;;22.33;;
48853;SDS011;34673;52.808;17.856;2023-03-01T01:59:35;53.75;;;22.17;;
48853;SDS011;34673;52.808;17.856;2023-03-01T02:02:04;50.22;;;21.08;;
48853;SDS011;34673;52.808;17.856;2023-03-01T02:04:32;57.67;;;22.45;;
48853;SDS011;34673;52.808;17.856;2023-03-01T02:07:16;51.53;;;21.67;;
48853;SDS011;34673;52.808;17.856;2023-03-01T02:09:50;54.05;;;21.80;;
48853;SDS011;34673;52.808;17.856;2023-03-01T02:12:23;50.30;;;23.27;;
48853;SDS011;34673;52.808;17.856;2023-03-01T02:14:51;54.55;;;22.17;;
48853;SDS011;34673;52.808;17.856;2023-03-01T02:17:18;47.38;;;22.02;;
48853;SDS011;34673;52.808;17.856;2023-03-01T02:22:37;43.05;;;20.50;;
48853;SDS011;34673;52.808;17.856;2023-03-01T02:25:07;48.03;;;21.35;;
48853;SDS011;34673;52.808;17.856;2023-03-01T02:33:54;45.13;;;20.08;;
48853;SDS011;34673;52.808;17.856;2023-03-01T02:36:26;45.20;;;20.88;;
48853;SDS011;34673;52.808;17.856;2023-03-01T02:38:58;48.20;;;19.98;;
48853;SDS011;34673;52.808;17.856;2023-03-01T02:41:28;48.28;;;20.33;;
48853;SDS011;34673;52.808;17.856;2023-03-01T02:43:58;44.42;;;19.83;;
48853;SDS011;34673;52.808;17.856;2023-03-01T02:46:26;44.53;;;20.55;;
48853;SDS011;34673;52.808;17.856;2023-03-01T02:48:56;46.38;;;20.48;;
48853;SDS011;34673;52.808;17.856;2023-03-01T02:54:10;44.55;;;19.48;;
48853;SDS011;34673;52.808;17.856;2023-03-01T02:56:44;48.47;;;20.70;;
48853;SDS011;34673;52.808;17.856;2023-03-01T02:59:18;48.72;;;20.90;;
48853;SDS011;34673;52.808;17.856;2023-03-01T03:01:47;48.53;;;20.98;;
48853;SDS011;34673;52.808;17.856;2023-03-01T03:04:17;44.67;;;19.77;;
48853;SDS011;34673;52.808;17.856;2023-03-01T03:06:47;46.53;;;19.58;;
48853;SDS011;34673;52.808;17.856;2023-03-01T03:09:17;45.75;;;19.38;;
48853;SDS011;34673;52.808;17.856;2023-03-01T03:11:45;46.08;;;20.65;;
48853;SDS011;34673;52.808;17.856;2023-03-01T03:14:13;45.70;;;21.00;;
48853;SDS011;34673;52.808;17.856;2023-03-01T03:16:45;44.25;;;20.45;;
48853;SDS011;34673;52.808;17.856;2023-03-01T03:19:15;44.88;;;21.05;;
48853;SDS011;34673;52.808;17.856;2023-03-01T03:21:43;48.95;;;20.27;;
48853;SDS011;34673;52.808;17.856;2023-03-01T03:24:11;47.05;;;20.45;;
48853;SDS011;34673;52.808;17.856;2023-03-01T03:26:38;48.08;;;21.10;;
48853;SDS011;34673;52.808;17.856;2023-03-01T03:29:05;47.63;;;21.17;;
48853;SDS011;34673;52.808;17.856;2023-03-01T03:31:32;46.42;;;21.05;;
48853;SDS011;34673;52.808;17.856;2023-03-01T03:34:00;49.65;;;21.55;;
48853;SDS011;34673;52.808;17.856;2023-03-01T03:36:27;43.67;;;19.50;;
48853;SDS011;34673;52.808;17.856;2023-03-01T03:38:55;50.03;;;21.42;;
48853;SDS011;34673;52.808;17.856;2023-03-01T03:41:22;43.88;;;20.77;;
48853;SDS011;34673;52.808;17.856;2023-03-01T03:43:49;49.10;;;21.20;;
48853;SDS011;34673;52.808;17.856;2023-03-01T03:46:16;44.40;;;19.95;;
48853;SDS011;34673;52.808;17.856;2023-03-01T03:48:44;45.42;;;19.73;;
48853;SDS011;34673;52.808;17.856;2023-03-01T03:51:15;44.25;;;20.45;;
48853;SDS011;34673;52.808;17.856;2023-03-01T03:53:44;42.55;;;19.77;;
48853;SDS011;34673;52.808;17.856;2023-03-01T03:56:12;47.38;;;19.20;;
48853;SDS011;34673;52.808;17.856;2023-03-01T03:58:39;39.25;;;18.75;;
48853;SDS011;34673;52.808;17.856;2023-03-01T04:01:07;43.47;;;17.95;;
48853;SDS011;34673;52.808;17.856;2023-03-01T04:03:34;42.42;;;18.73;;
48853;SDS011;34673;52.808;17.856;2023-03-01T04:06:02;41.90;;;18.02;;
48853;SDS011;34673;52.808;17.856;2023-03-01T04:08:30;40.60;;;19.10;;
48853;SDS011;34673;52.808;17.856;2023-03-01T04:11:00;43.17;;;19.33;;
48853;SDS011;34673;52.808;17.856;2023-03-01T04:13:48;45.67;;;18.52;;
48853;SDS011;34673;52.808;17.856;2023-03-01T04:16:15;42.97;;;19.20;;
48853;SDS011;34673;52.808;17.856;2023-03-01T04:18:44;44.78;;;19.35;;
48853;SDS011;34673;52.808;17.856;2023-03-01T04:21:12;45.20;;;19.17;;
48853;SDS011;34673;52.808;17.856;2023-03-01T04:23:39;42.15;;;18.45;;
48853;SDS011;34673;52.808;17.856;2023-03-01T04:26:07;47.10;;;19.00;;
48853;SDS011;34673;52.808;17.856;2023-03-01T04:28:36;45.38;;;19.83;;
48853;SDS011;34673;52.808;17.856;2023-03-01T04:31:07;45.10;;;19.90;;
48853;SDS011;34673;52.808;17.856;2023-03-01T04:33:47;44.00;;;19.83;;
48853;SDS011;34673;52.808;17.856;2023-03-01T04:36:20;47.65;;;20.15;;
48853;SDS011;34673;52.808;17.856;2023-03-01T04:38:50;41.90;;;20.05;;
48853;SDS011;34673;52.808;17.856;2023-03-01T04:41:19;44.33;;;20.42;;
48853;SDS011;34673;52.808;17.856;2023-03-01T04:43:47;46.30;;;20.98;;
48853;SDS011;34673;52.808;17.856;2023-03-01T04:46:16;44.47;;;20.40;;
48853;SDS011;34673;52.808;17.856;2023-03-01T04:48:45;45.92;;;21.05;;
48853;SDS011;34673;52.808;17.856;2023-03-01T04:51:14;47.40;;;20.95;;
48853;SDS011;34673;52.808;17.856;2023-03-01T04:53:42;45.80;;;20.27;;
48853;SDS011;34673;52.808;17.856;2023-03-01T04:56:10;47.00;;;20.58;;
48853;SDS011;34673;52.808;17.856;2023-03-01T04:58:40;47.42;;;19.63;;
48853;SDS011;34673;52.808;17.856;2023-03-01T05:01:09;44.15;;;20.33;;
48853;SDS011;34673;52.808;17.856;2023-03-01T05:03:44;45.08;;;20.20;;
48853;SDS011;34673;52.808;17.856;2023-03-01T05:06:15;45.13;;;19.83;;
48853;SDS011;34673;52.808;17.856;2023-03-01T05:08:44;42.60;;;20.35;;
48853;SDS011;34673;52.808;17.856;2023-03-01T05:11:12;47.90;;;20.30;;
48853;SDS011;34673;52.808;17.856;2023-03-01T05:13:39;47.47;;;21.02;;
48853;SDS011;34673;52.808;17.856;2023-03-01T05:16:07;45.50;;;20.35;;
48853;SDS011;34673;52.808;17.856;2023-03-01T05:18:39;45.28;;;20.70;;
48853;SDS011;34673;52.808;17.856;2023-03-01T05:21:11;50.75;;;20.85;;
48853;SDS011;34673;52.808;17.856;2023-03-01T05:23:43;46.03;;;21.17;;
48853;SDS011;34673;52.808;17.856;2023-03-01T05:26:10;46.17;;;20.63;;
48853;SDS011;34673;52.808;17.856;2023-03-01T05:28:54;48.30;;;21.08;;
48853;SDS011;34673;52.808;17.856;2023-03-01T05:31:26;44.72;;;21.05;;
48853;SDS011;34673;52.808;17.856;2023-03-01T05:33:53;50.55;;;21.75;;
48853;SDS011;34673;52.808;17.856;2023-03-01T05:36:20;49.53;;;21.83;;
48853;SDS011;34673;52.808;17.856;2023-03-01T05:38:47;45.90;;;20.73;;
48853;SDS011;34673;52.808;17.856;2023-03-01T05:41:15;46.60;;;20.88;;
48853;SDS011;34673;52.808;17.856;2023-03-01T05:43:43;47.00;;;21.23;;
48853;SDS011;34673;52.808;17.856;2023-03-01T05:46:11;51.83;;;21.58;;
48853;SDS011;34673;52.808;17.856;2023-03-01T05:48:40;43.90;;;19.65;;
48853;SDS011;34673;52.808;17.856;2023-03-01T05:51:07;43.78;;;19.98;;
48853;SDS011;34673;52.808;17.856;2023-03-01T05:53:34;42.80;;;19.98;;
48853;SDS011;34673;52.808;17.856;2023-03-01T05:56:04;47.90;;;21.83;;
48853;SDS011;34673;52.808;17.856;2023-03-01T05:58:32;50.65;;;21.02;;
48853;SDS011;34673;52.808;17.856;2023-03-01T06:00:59;48.00;;;20.80;;
48853;SDS011;34673;52.808;17.856;2023-03-01T06:03:27;46.65;;;20.98;;
48853;SDS011;34673;52.808;17.856;2023-03-01T06:05:57;47.60;;;21.02;;
48853;SDS011;34673;52.808;17.856;2023-03-01T06:08:25;46.60;;;21.38;;
48853;SDS011;34673;52.808;17.856;2023-03-01T06:10:53;48.40;;;22.05;;
48853;SDS011;34673;52.808;17.856;2023-03-01T06:13:21;48.17;;;20.95;;
48853;SDS011;34673;52.808;17.856;2023-03-01T06:15:50;45.55;;;20.73;;
48853;SDS011;34673;52.808;17.856;2023-03-01T06:18:17;49.58;;;21.35;;
48853;SDS011;34673;52.808;17.856;2023-03-01T06:20:44;50.85;;;21.25;;
48853;SDS011;34673;52.808;17.856;2023-03-01T06:23:12;48.70;;;21.13;;
48853;SDS011;34673;52.808;17.856;2023-03-01T06:25:39;42.30;;;20.15;;
48853;SDS011;34673;52.808;17.856;2023-03-01T06:28:06;41.53;;;19.17;;
48853;SDS011;34673;52.808;17.856;2023-03-01T06:30:34;52.08;;;20.67;;
48853;SDS011;34673;52.808;17.856;2023-03-01T06:33:01;52.28;;;20.17;;
48853;SDS011;34673;52.808;17.856;2023-03-01T06:35:29;45.90;;;20.35;;
48853;SDS011;34673;52.808;17.856;2023-03-01T06:37:58;46.03;;;19.80;;
48853;SDS011;34673;52.808;17.856;2023-03-01T06:40:27;40.53;;;19.27;;
48853;SDS011;34673;52.808;17.856;2023-03-01T06:42:54;46.00;;;20.02;;
48853;SDS011;34673;52.808;17.856;2023-03-01T06:45:21;41.65;;;19.52;;
48853;SDS011;34673;52.808;17.856;2023-03-01T06:47:48;45.65;;;19.10;;
48853;SDS011;34673;52.808;17.856;2023-03-01T06:50:16;43.13;;;19.70;;
48853;SDS011;34673;52.808;17.856;2023-03-01T06:52:44;42.00;;;18.88;;
48853;SDS011;34673;52.808;17.856;2023-03-01T06:55:12;44.65;;;19.38;;
48853;SDS011;34673;52.808;17.856;2023-03-01T06:57:40;44.28;;;19.88;;
48853;SDS011;34673;52.808;17.856;2023-03-01T07:00:07;46.45;;;19.35;;
48853;SDS011;34673;52.808;17.856;2023-03-01T07:02:35;44.97;;;19.42;;
48853;SDS011;34673;52.808;17.856;2023-03-01T07:05:02;44.17;;;19.25;;
48853;SDS011;34673;52.808;17.856;2023-03-01T07:07:29;42.83;;;19.60;;
48853;SDS011;34673;52.808;17.856;2023-03-01T07:09:57;40.30;;;18.85;;
48853;SDS011;34673;52.808;17.856;2023-03-01T07:12:24;41.70;;;18.50;;
48853;SDS011;34673;52.808;17.856;2023-03-01T07:14:51;41.75;;;19.20;;
48853;SDS011;34673;52.808;17.856;2023-03-01T07:17:18;44.00;;;20.00;;
48853;SDS011;34673;52.808;17.856;2023-03-01T07:19:45;50.28;;;20.38;;
48853;SDS011;34673;52.808;17.856;2023-03-01T07:22:12;40.67;;;18.52;;
48853;SDS011;34673;52.808;17.856;2023-03-01T07:24:40;44.47;;;19.10;;
48853;SDS011;34673;52.808;17.856;2023-03-01T07:27:08;46.60;;;19.63;;
48853;SDS011;34673;52.808;17.856;2023-03-01T07:29:36;44.80;;;18.70;;
48853;SDS011;34673;52.808;17.856;2023-03-01T07:32:03;47.75;;;19.85;;
48853;SDS011;34673;52.808;17.856;2023-03-01T07:34:31;41.33;;;17.85;;
48853;SDS011;34673;52.808;17.856;2023-03-01T07:36:59;42.50;;;19.25;;
48853;SDS011;34673;52.808;17.856;2023-03-01T07:39:26;42.88;;;17.58;;
48853;SDS011;34673;52.808;17.856;2023-03-01T07:41:53;43.30;;;17.67;;
48853;SDS011;34673;52.808;17.856;2023-03-01T07:44:21;39.22;;;18.15;;
48853;SDS011;34673;52.808;17.856;2023-03-01T07:46:48;43.50;;;18.98;;
48853;SDS011;34673;52.808;17.856;2023-03-01T07:49:15;45.30;;;18.52;;
48853;SDS011;34673;52.808;17.856;2023-03-01T07:51:43;40.88;;;18.50;;
48853;SDS011;34673;52.808;17.856;2023-03-01T07:54:10;41.05;;;18.73;;
48853;SDS011;34673;52.808;17.856;2023-03-01T07:56:37;41.50;;;18.80;;
48853;SDS011;34673;52.808;17.856;2023-03-01T07:59:04;35.15;;;16.23;;
48853;SDS011;34673;52.808;17.856;2023-03-01T08:01:31;41.10;;;17.90;;
48853;SDS011;34673;52.808;17.856;2023-03-01T08:03:58;37.15;;;15.80;;
48853;SDS011;34673;52.808;17.856;2023-03-01T08:06:25;37.53;;;16.35;;
48853;SDS011;34673;52.808;17.856;2023-03-01T08:08:53;35.47;;;16.10;;
48853;SDS011;34673;52.808;17.856;2023-03-01T08:11:24;40.95;;;17.55;;
48853;SDS011;34673;52.808;17.856;2023-03-01T08:13:52;41.85;;;17.80;;
48853;SDS011;34673;52.808;17.856;2023-03-01T08:16:19;45.13;;;18.02;;
48853;SDS011;34673;52.808;17.856;2023-03-01T08:18:47;39.60;;;16.77;;
48853;SDS011;34673;52.808;17.856;2023-03-01T08:21:15;37.47;;;16.35;;
48853;SDS011;34673;52.808;17.856;2023-03-01T08:23:44;29.48;;;14.23;;
48853;SDS011;34673;52.808;17.856;2023-03-01T08:26:13;31.38;;;15.35;;
48853;SDS011;34673;52.808;17.856;2023-03-01T08:28:42;40.08;;;17.23;;
48853;SDS011;34673;52.808;17.856;2023-03-01T08:31:13;30.20;;;13.63;;
48853;SDS011;34673;52.808;17.856;2023-03-01T08:33:41;31.15;;;14.65;;
48853;SDS011;34673;52.808;17.856;2023-03-01T08:36:08;31.45;;;13.30;;
48853;SDS011;34673;52.808;17.856;2023-03-01T08:38:36;30.23;;;13.77;;
48853;SDS011;34673;52.808;17.856;2023-03-01T08:41:03;30.25;;;13.85;;
48853;SDS011;34673;52.808;17.856;2023-03-01T08:43:30;35.65;;;15.00;;
48853;SDS011;34673;52.808;17.856;2023-03-01T08:45:57;29.40;;;13.90;;
48853;SDS011;34673;52.808;17.856;2023-03-01T08:48:25;27.38;;;13.02;;
48853;SDS011;34673;52.808;17.856;2023-03-01T08:50:54;25.20;;;12.13;;
48853;SDS011;34673;52.808;17.856;2023-03-01T08:53:21;26.27;;;12.02;;
48853;SDS011;34673;52.808;17.856;2023-03-01T08:55:49;26.20;;;12.55;;
48853;SDS011;34673;52.808;17.856;2023-03-01T08:58:16;26.77;;;12.15;;
48853;SDS011;34673;52.808;17.856;2023-03-01T09:00:43;27.77;;;12.15;;
48853;SDS011;34673;52.808;17.856;2023-03-01T09:03:11;23.27;;;11.70;;
48853;SDS011;34673;52.808;17.856;2023-03-01T09:05:38;22.50;;;10.55;;
48853;SDS011;34673;52.808;17.856;2023-03-01T09:08:05;23.23;;;11.07;;
48853;SDS011;34673;52.808;17.856;2023-03-01T09:10:37;21.50;;;10.88;;
48853;SDS011;34673;52.808;17.856;2023-03-01T09:13:05;24.92;;;11.73;;
48853;SDS011;34673;52.808;17.856;2023-03-01T09:15:33;27.73;;;11.20;;
48853;SDS011;34673;52.808;17.856;2023-03-01T09:18:00;23.60;;;11.57;;
48853;SDS011;34673;52.808;17.856;2023-03-01T09:20:27;24.38;;;10.70;;
48853;SDS011;34673;52.808;17.856;2023-03-01T09:22:55;24.20;;;11.57;;
48853;SDS011;34673;52.808;17.856;2023-03-01T09:25:22;25.27;;;11.82;;
48853;SDS011;34673;52.808;17.856;2023-03-01T09:27:51;22.38;;;11.57;;
48853;SDS011;34673;52.808;17.856;2023-03-01T09:30:19;24.85;;;12.13;;
48853;SDS011;34673;52.808;17.856;2023-03-01T09:32:47;29.25;;;13.02;;
48853;SDS011;34673;52.808;17.856;2023-03-01T09:35:14;31.38;;;14.38;;
48853;SDS011;34673;52.808;17.856;2023-03-01T09:37:41;26.52;;;12.98;;
48853;SDS011;34673;52.808;17.856;2023-03-01T09:40:15;29.05;;;13.10;;
48853;SDS011;34673;52.808;17.856;2023-03-01T09:42:55;28.25;;;13.50;;
48853;SDS011;34673;52.808;17.856;2023-03-01T09:45:41;29.50;;;13.07;;
48853;SDS011;34673;52.808;17.856;2023-03-01T09:48:16;27.67;;;13.18;;
48853;SDS011;34673;52.808;17.856;2023-03-01T09:50:48;29.63;;;13.93;;
48853;SDS011;34673;52.808;17.856;2023-03-01T09:53:17;30.73;;;14.18;;
48853;SDS011;34673;52.808;17.856;2023-03-01T09:55:58;31.27;;;15.48;;
48853;SDS011;34673;52.808;17.856;2023-03-01T10:09:32;36.60;;;16.58;;
48853;SDS011;34673;52.808;17.856;2023-03-01T10:12:01;36.05;;;16.38;;
48853;SDS011;34673;52.808;17.856;2023-03-01T10:14:42;33.65;;;15.65;;
48853;SDS011;34673;52.808;17.856;2023-03-01T10:20:05;29.23;;;14.90;;
48853;SDS011;34673;52.808;17.856;2023-03-01T10:22:42;31.35;;;15.18;;
48853;SDS011;34673;52.808;17.856;2023-03-01T10:25:13;30.83;;;15.48;;
48853;SDS011;34673;52.808;17.856;2023-03-01T10:30:34;35.10;;;16.92;;
48853;SDS011;34673;52.808;17.856;2023-03-01T10:33:10;32.78;;;16.02;;
48853;SDS011;34673;52.808;17.856;2023-03-01T10:35:44;29.52;;;15.57;;
48853;SDS011;34673;52.808;17.856;2023-03-01T10:38:12;31.52;;;16.65;;
48853;SDS011;34673;52.808;17.856;2023-03-01T10:41:26;28.85;;;15.18;;
48853;SDS011;34673;52.808;17.856;2023-03-01T10:43:44;28.05;;;14.75;;
48853;SDS011;34673;52.808;17.856;2023-03-01T10:46:36;32.83;;;16.85;;
48853;SDS011;34673;52.808;17.856;2023-03-01T10:49:19;32.50;;;15.43;;
48853;SDS011;34673;52.808;17.856;2023-03-01T10:51:51;31.80;;;16.00;;
48853;SDS011;34673;52.808;17.856;2023-03-01T10:54:30;32.70;;;15.50;;
48853;SDS011;34673;52.808;17.856;2023-03-01T10:57:00;30.63;;;15.25;;
48853;SDS011;34673;52.808;17.856;2023-03-01T10:59:31;29.25;;;14.27;;
48853;SDS011;34673;52.808;17.856;2023-03-01T11:04:58;29.50;;;14.93;;
48853;SDS011;34673;52.808;17.856;2023-03-01T11:07:28;30.55;;;15.23;;
48853;SDS011;34673;52.808;17.856;2023-03-01T11:09:56;28.70;;;14.10;;
48853;SDS011;34673;52.808;17.856;2023-03-01T11:12:23;30.48;;;14.60;;
48853;SDS011;34673;52.808;17.856;2023-03-01T11:14:52;24.38;;;12.93;;
48853;SDS011;34673;52.808;17.856;2023-03-01T11:17:23;28.35;;;13.90;;
48853;SDS011;34673;52.808;17.856;2023-03-01T11:20:01;27.27;;;13.60;;
48853;SDS011;34673;52.808;17.856;2023-03-01T11:22:37;31.42;;;13.98;;
48853;SDS011;34673;52.808;17.856;2023-03-01T11:25:12;26.27;;;12.40;;
48853;SDS011;34673;52.808;17.856;2023-03-01T11:27:41;25.42;;;13.10;;
48853;SDS011;34673;52.808;17.856;2023-03-01T11:33:18;29.00;;;13.52;;
48853;SDS011;34673;52.808;17.856;2023-03-01T11:36:05;28.38;;;13.98;;
48853;SDS011;34673;52.808;17.856;2023-03-01T11:38:40;30.88;;;14.40;;
48853;SDS011;34673;52.808;17.856;2023-03-01T11:41:30;25.48;;;12.75;;
48853;SDS011;34673;52.808;17.856;2023-03-01T11:44:18;24.85;;;12.35;;
48853;SDS011;34673;52.808;17.856;2023-03-01T11:49:35;28.73;;;13.40;;
48853;SDS011;34673;52.808;17.856;2023-03-01T11:57:38;25.10;;;12.73;;
48853;SDS011;34673;52.808;17.856;2023-03-01T12:06:12;28.00;;;13.60;;
48853;SDS011;34673;52.808;17.856;2023-03-01T12:11:49;25.55;;;14.23;;
48853;SDS011;34673;52.808;17.856;2023-03-01T12:23:03;26.42;;;13.18;;
48853;SDS011;34673;52.808;17.856;2023-03-01T12:25:46;29.77;;;13.68;;
48853;SDS011;34673;52.808;17.856;2023-03-01T12:34:29;27.77;;;13.80;;
48853;SDS011;34673;52.808;17.856;2023-03-01T12:37:42;27.85;;;12.13;;
48853;SDS011;34673;52.808;17.856;2023-03-01T12:46:01;23.58;;;12.23;;
48853;SDS011;34673;52.808;17.856;2023-03-01T12:51:54;20.83;;;11.10;;
48853;SDS011;34673;52.808;17.856;2023-03-01T12:54:29;22.33;;;10.40;;
48853;SDS011;34673;52.808;17.856;2023-03-01T12:56:59;21.83;;;11.75;;
48853;SDS011;34673;52.808;17.856;2023-03-01T13:00:54;23.80;;;11.85;;
48853;SDS011;34673;52.808;17.856;2023-03-01T13:02:58;23.20;;;12.15;;
48853;SDS011;34673;52.808;17.856;2023-03-01T13:11:23;24.70;;;12.35;;
48853;SDS011;34673;52.808;17.856;2023-03-01T13:13:50;25.38;;;12.45;;
48853;SDS011;34673;52.808;17.856;2023-03-01T13:21:45;25.65;;;12.65;;
48853;SDS011;34673;52.808;17.856;2023-03-01T13:29:45;25.45;;;13.18;;
48853;SDS011;34673;52.808;17.856;2023-03-01T13:37:37;21.83;;;11.80;;
48853;SDS011;34673;52.808;17.856;2023-03-01T13:40:56;24.85;;;13.07;;
48853;SDS011;34673;52.808;17.856;2023-03-01T13:42:55;25.25;;;13.02;;
48853;SDS011;34673;52.808;17.856;2023-03-01T13:48:00;23.58;;;12.50;;
48853;SDS011;34673;52.808;17.856;2023-03-01T13:50:33;26.88;;;12.73;;
48853;SDS011;34673;52.808;17.856;2023-03-01T13:53:09;24.08;;;12.07;;
48853;SDS011;34673;52.808;17.856;2023-03-01T13:55:45;28.08;;;12.45;;
48853;SDS011;34673;52.808;17.856;2023-03-01T13:58:23;22.02;;;12.05;;
48853;SDS011;34673;52.808;17.856;2023-03-01T14:01:05;26.52;;;13.15;;
48853;SDS011;34673;52.808;17.856;2023-03-01T14:03:40;25.83;;;12.77;;
48853;SDS011;34673;52.808;17.856;2023-03-01T14:06:12;21.60;;;12.05;;
48853;SDS011;34673;52.808;17.856;2023-03-01T14:08:47;25.73;;;12.35;;
48853;SDS011;34673;52.808;17.856;2023-03-01T14:17:24;26.95;;;13.10;;
48853;SDS011;34673;52.808;17.856;2023-03-01T14:20:01;25.08;;;13.20;;
48853;SDS011;34673;52.808;17.856;2023-03-01T14:22:35;25.00;;;12.68;;
48853;SDS011;34673;52.808;17.856;2023-03-01T14:25:46;26.85;;;12.40;;
48853;SDS011;34673;52.808;17.856;2023-03-01T14:28:13;25.42;;;12.10;;
48853;SDS011;34673;52.808;17.856;2023-03-01T14:30:42;22.90;;;12.18;;
48853;SDS011;34673;52.808;17.856;2023-03-01T14:33:28;22.05;;;12.38;;
48853;SDS011;34673;52.808;17.856;2023-03-01T14:36:07;22.90;;;11.90;;
48853;SDS011;34673;52.808;17.856;2023-03-01T14:38:40;25.60;;;12.57;;
48853;SDS011;34673;52.808;17.856;2023-03-01T14:41:15;32.60;;;12.13;;
48853;SDS011;34673;52.808;17.856;2023-03-01T14:43:46;24.88;;;13.15;;
48853;SDS011;34673;52.808;17.856;2023-03-01T14:46:21;25.27;;;12.48;;
48853;SDS011;34673;52.808;17.856;2023-03-01T14:48:53;21.77;;;11.55;;
48853;SDS011;34673;52.808;17.856;2023-03-01T14:51:24;22.40;;;11.38;;
48853;SDS011;34673;52.808;17.856;2023-03-01T14:53:51;20.10;;;10.07;;
48853;SDS011;34673;52.808;17.856;2023-03-01T14:56:19;21.52;;;10.60;;
48853;SDS011;34673;52.808;17.856;2023-03-01T14:58:50;21.75;;;9.60;;
48853;SDS011;34673;52.808;17.856;2023-03-01T15:01:19;20.92;;;10.13;;
48853;SDS011;34673;52.808;17.856;2023-03-01T15:03:48;19.73;;;10.07;;
48853;SDS011;34673;52.808;17.856;2023-03-01T15:06:20;17.13;;;8.43;;
48853;SDS011;34673;52.808;17.856;2023-03-01T15:08:50;17.80;;;8.60;;
48853;SDS011;34673;52.808;17.856;2023-03-01T15:13:50;16.17;;;8.48;;
48853;SDS011;34673;52.808;17.856;2023-03-01T15:16:22;20.20;;;8.52;;
48853;SDS011;34673;52.808;17.856;2023-03-01T15:18:53;19.20;;;7.80;;
48853;SDS011;34673;52.808;17.856;2023-03-01T15:21:27;17.88;;;8.27;;
48853;SDS011;34673;52.808;17.856;2023-03-01T15:29:18;19.40;;;8.73;;
48853;SDS011;34673;52.808;17.856;2023-03-01T15:34:27;16.80;;;8.30;;
48853;SDS011;34673;52.808;17.856;2023-03-01T15:36:57;16.92;;;8.57;;
48853;SDS011;34673;52.808;17.856;2023-03-01T15:42:05;17.63;;;9.07;;
48853;SDS011;34673;52.808;17.856;2023-03-01T15:44:36;16.23;;;8.57;;
48853;SDS011;34673;52.808;17.856;2023-03-01T15:47:23;19.15;;;9.45;;
48853;SDS011;34673;52.808;17.856;2023-03-01T15:49:53;22.40;;;10.13;;
48853;SDS011;34673;52.808;17.856;2023-03-01T15:52:26;20.63;;;9.85;;
48853;SDS011;34673;52.808;17.856;2023-03-01T15:55:14;21.90;;;10.52;;
48853;SDS011;34673;52.808;17.856;2023-03-01T15:57:44;23.65;;;10.68;;
48853;SDS011;34673;52.808;17.856;2023-03-01T16:00:13;20.70;;;10.98;;
48853;SDS011;34673;52.808;17.856;2023-03-01T16:02:42;26.05;;;12.00;;
48853;SDS011;34673;52.808;17.856;2023-03-01T16:05:20;22.98;;;11.13;;
48853;SDS011;34673;52.808;17.856;2023-03-01T16:07:50;20.98;;;11.25;;
48853;SDS011;34673;52.808;17.856;2023-03-01T16:10:18;22.08;;;10.30;;
48853;SDS011;34673;52.808;17.856;2023-03-01T16:12:46;24.02;;;11.02;;
48853;SDS011;34673;52.808;17.856;2023-03-01T16:15:20;26.70;;;11.30;;
48853;SDS011;34673;52.808;17.856;2023-03-01T16:17:50;20.42;;;10.68;;
48853;SDS011;34673;52.808;17.856;2023-03-01T16:20:22;29.38;;;13.32;;
48853;SDS011;34673;52.808;17.856;2023-03-01T16:22:59;27.33;;;13.07;;
48853;SDS011;34673;52.808;17.856;2023-03-01T16:25:28;24.40;;;12.75;;
48853;SDS011;34673;52.808;17.856;2023-03-01T16:27:56;30.40;;;13.88;;
48853;SDS011;34673;52.808;17.856;2023-03-01T16:30:26;29.88;;;14.23;;
48853;SDS011;34673;52.808;17.856;2023-03-01T16:32:53;30.48;;;15.02;;